FRS123 EDDV-EDOP

Flight info

Callsign FRS123
Flight time N/A
Altitude 2000
Route PLATZRUNDEN
Aircraft EC45/L-SDGY/S

Departure

Time 2026-05-06 14:38
Airport Hannover Airport (EDDV)

Arrival

Time N/A
Airport EDOP
Time Latitude Longitude Altitude Speed Heading
2026-05-06 14:33 52.46273 9.69090 174 ft 0 kts 186°
2026-05-06 14:37 52.46275 9.69081 183 ft 1 kts 272°
2026-05-06 14:37 52.46281 9.69055 198 ft 5 kts 272°
2026-05-06 14:37 52.46360 9.68963 236 ft 37 kts 337°
2026-05-06 14:38 52.46727 9.69170 347 ft 72 kts 30°
2026-05-06 14:38 52.47149 9.69720 561 ft 83 kts 29°
2026-05-06 14:38 52.47601 9.70244 811 ft 71 kts 29°
2026-05-06 14:38 52.47985 9.70654 1193 ft 68 kts 33°
2026-05-06 14:39 52.48361 9.71125 1531 ft 67 kts 41°
2026-05-06 14:39 52.48695 9.71632 1872 ft 65 kts 49°
2026-05-06 14:39 52.48969 9.72215 1878 ft 63 kts 51°
2026-05-06 14:39 52.49229 9.72793 1858 ft 63 kts 57°
2026-05-06 14:40 52.49458 9.73410 1848 ft 64 kts 59°
2026-05-06 14:40 52.49627 9.74083 1844 ft 64 kts 75°
2026-05-06 14:40 52.49833 9.74714 1842 ft 64 kts 51°
2026-05-06 14:40 52.50133 9.75244 1841 ft 65 kts 50°
2026-05-06 14:41 52.50443 9.75780 1840 ft 65 kts 49°
2026-05-06 14:41 52.50761 9.76288 1840 ft 63 kts 43°
2026-05-06 14:41 52.51092 9.76750 1839 ft 63 kts 44°
2026-05-06 14:41 52.51423 9.77219 1837 ft 63 kts 43°
2026-05-06 14:42 52.51765 9.77667 1839 ft 63 kts 40°
2026-05-06 14:42 52.52193 9.78122 1838 ft 78 kts 38°
2026-05-06 14:42 52.52652 9.78591 1839 ft 77 kts 36°
2026-05-06 14:42 52.53118 9.79034 1840 ft 77 kts 35°
2026-05-06 14:43 52.53585 9.79471 1838 ft 77 kts 35°
2026-05-06 14:43 52.53996 9.79981 1837 ft 75 kts 60°
2026-05-06 14:43 52.54197 9.80762 1838 ft 74 kts 60°
2026-05-06 14:43 52.54405 9.81535 1838 ft 74 kts 66°
2026-05-06 14:44 52.54605 9.82320 1837 ft 75 kts 66°
2026-05-06 14:44 52.54802 9.83110 1838 ft 75 kts 66°
2026-05-06 14:44 52.54998 9.83899 1837 ft 75 kts 66°
2026-05-06 14:45 52.55417 9.85458 1839 ft 74 kts 53°
2026-05-06 14:45 52.55777 9.86040 2117 ft 67 kts 47°
2026-05-06 14:45 52.56108 9.86477 2497 ft 57 kts 46°
2026-05-06 14:45 52.56317 9.86949 2622 ft 49 kts 69°
2026-05-06 14:46 52.56447 9.87581 2601 ft 64 kts 71°
2026-05-06 14:46 52.56584 9.88263 2587 ft 63 kts 71°
2026-05-06 14:46 52.56727 9.88936 2585 ft 61 kts 71°
2026-05-06 14:46 52.56869 9.89588 2651 ft 61 kts 71°
2026-05-06 14:47 52.57020 9.90281 2708 ft 67 kts 71°
2026-05-06 14:47 52.57174 9.91001 2729 ft 67 kts 71°
2026-05-06 14:47 52.57340 9.91781 2740 ft 77 kts 70°
2026-05-06 14:47 52.57621 9.92543 2745 ft 78 kts 58°
2026-05-06 14:48 52.57940 9.93271 2752 ft 79 kts 57°
2026-05-06 14:48 52.58265 9.94000 2746 ft 79 kts 57°
2026-05-06 14:48 52.58588 9.94714 2753 ft 79 kts 56°
2026-05-06 14:48 52.58917 9.95435 2750 ft 78 kts 56°
2026-05-06 14:49 52.59231 9.96114 2748 ft 72 kts 58°
2026-05-06 14:49 52.59539 9.96779 2751 ft 73 kts 58°
2026-05-06 14:49 52.59850 9.97453 2750 ft 74 kts 57°
2026-05-06 14:49 52.60160 9.98132 2701 ft 86 kts 56°
2026-05-06 14:50 52.60543 9.98980 2831 ft 95 kts 51°
2026-05-06 14:50 52.60942 9.99837 2882 ft 94 kts 51°
2026-05-06 14:50 52.61342 10.00685 2900 ft 94 kts 51°
2026-05-06 14:50 52.61736 10.01521 2910 ft 94 kts 51°
2026-05-06 14:51 52.62136 10.02365 2915 ft 94 kts 51°
2026-05-06 14:51 52.62536 10.03211 2918 ft 94 kts 51°
2026-05-06 14:51 52.62936 10.04056 2920 ft 94 kts 51°
2026-05-06 14:51 52.63337 10.04902 2902 ft 94 kts 50°
2026-05-06 14:52 52.63738 10.05741 2830 ft 93 kts 51°
2026-05-06 14:52 52.64136 10.06583 2840 ft 93 kts 51°
2026-05-06 14:52 52.64536 10.07427 2831 ft 93 kts 50°
2026-05-06 14:52 52.64978 10.08363 2701 ft 111 kts 50°
2026-05-06 14:53 52.65450 10.09348 2580 ft 108 kts 50°
2026-05-06 14:53 52.65910 10.10305 2421 ft 108 kts 51°
2026-05-06 14:53 52.66371 10.11276 2323 ft 108 kts 52°
2026-05-06 14:53 52.66834 10.12260 2283 ft 108 kts 52°
2026-05-06 14:54 52.67296 10.13247 2269 ft 109 kts 51°
2026-05-06 14:54 52.67757 10.14227 2258 ft 108 kts 52°
2026-05-06 14:54 52.68219 10.15211 2254 ft 109 kts 51°
2026-05-06 14:54 52.68680 10.16197 2254 ft 109 kts 51°
2026-05-06 14:55 52.69143 10.17180 2249 ft 108 kts 52°
2026-05-06 14:55 52.69604 10.18166 2250 ft 109 kts 52°
2026-05-06 14:55 52.70065 10.19152 2249 ft 109 kts 52°
2026-05-06 14:55 52.70526 10.20139 2249 ft 109 kts 52°
2026-05-06 14:56 52.70988 10.21124 2252 ft 109 kts 51°
2026-05-06 14:56 52.71444 10.22094 2251 ft 108 kts 51°
2026-05-06 14:56 52.71905 10.23081 2252 ft 109 kts 51°
2026-05-06 14:56 52.72364 10.24072 2252 ft 109 kts 52°
2026-05-06 14:57 52.72820 10.25061 2250 ft 108 kts 52°
2026-05-06 14:57 52.73276 10.26053 2248 ft 108 kts 52°
2026-05-06 14:57 52.73729 10.27051 2250 ft 109 kts 52°
2026-05-06 14:57 52.74177 10.28054 2249 ft 109 kts 53°
2026-05-06 14:58 52.74620 10.29063 2250 ft 109 kts 54°
2026-05-06 14:58 52.75058 10.30080 2250 ft 109 kts 54°
2026-05-06 14:58 52.75490 10.31104 2250 ft 109 kts 55°
2026-05-06 14:58 52.75918 10.32111 2250 ft 109 kts 52°
2026-05-06 14:59 52.76406 10.33061 2250 ft 108 kts 46°
2026-05-06 14:59 52.76951 10.33921 2252 ft 108 kts 39°
2026-05-06 14:59 52.77548 10.34678 2249 ft 108 kts 33°
2026-05-06 14:59 52.78190 10.35325 2249 ft 108 kts 27°
2026-05-06 15:00 52.78867 10.35860 2250 ft 108 kts 23°
2026-05-06 15:00 52.79531 10.36434 2250 ft 108 kts 31°
2026-05-06 15:00 52.80118 10.37211 2250 ft 109 kts 44°
2026-05-06 15:00 52.80613 10.38154 2250 ft 109 kts 52°
2026-05-06 15:01 52.81034 10.39191 2250 ft 109 kts 59°
2026-05-06 15:01 52.81371 10.40293 2250 ft 109 kts 65°
2026-05-06 15:01 52.81667 10.41443 2250 ft 109 kts 67°
2026-05-06 15:01 52.81965 10.42594 2250 ft 109 kts 65°
2026-05-06 15:02 52.82299 10.43719 2250 ft 109 kts 62°
2026-05-06 15:02 52.82647 10.44830 2250 ft 109 kts 62°
2026-05-06 15:02 52.83027 10.45910 2250 ft 109 kts 53°
2026-05-06 15:02 52.83491 10.46895 2250 ft 109 kts 51°
2026-05-06 15:03 52.83951 10.47887 2250 ft 109 kts 52°
2026-05-06 15:03 52.84406 10.48886 2250 ft 109 kts 52°
2026-05-06 15:03 52.84848 10.49879 2250 ft 109 kts 53°
2026-05-06 15:03 52.85290 10.50893 2250 ft 109 kts 54°
2026-05-06 15:04 52.85726 10.51913 2250 ft 109 kts 54°
2026-05-06 15:04 52.86156 10.52940 2250 ft 109 kts 55°
2026-05-06 15:04 52.86580 10.53975 2252 ft 109 kts 55°
2026-05-06 15:04 52.87001 10.55012 2250 ft 108 kts 55°
2026-05-06 15:05 52.87417 10.56054 2251 ft 109 kts 56°
2026-05-06 15:05 52.87829 10.57104 2252 ft 108 kts 56°
2026-05-06 15:05 52.88239 10.58151 2251 ft 109 kts 56°
2026-05-06 15:05 52.88670 10.59176 2251 ft 109 kts 51°
2026-05-06 15:06 52.89131 10.60141 2250 ft 108 kts 51°
2026-05-06 15:06 52.89600 10.61118 2250 ft 108 kts 51°
2026-05-06 15:06 52.90066 10.62100 2249 ft 109 kts 51°
2026-05-06 15:06 52.90532 10.63086 2250 ft 108 kts 51°
2026-05-06 15:07 52.90996 10.64072 2251 ft 108 kts 51°
2026-05-06 15:07 52.91456 10.65056 2248 ft 108 kts 52°
2026-05-06 15:07 52.91918 10.66046 2249 ft 108 kts 52°
2026-05-06 15:07 52.92378 10.67037 2251 ft 108 kts 51°
2026-05-06 15:08 52.92839 10.68026 2250 ft 108 kts 51°
2026-05-06 15:08 52.93298 10.69016 2249 ft 108 kts 52°
2026-05-06 15:08 52.93758 10.70010 2250 ft 108 kts 52°
2026-05-06 15:08 52.94211 10.70989 2249 ft 108 kts 52°
2026-05-06 15:09 52.94668 10.71982 2249 ft 109 kts 52°
2026-05-06 15:09 52.95126 10.72977 2252 ft 109 kts 52°
2026-05-06 15:09 52.95584 10.73969 2248 ft 108 kts 52°
2026-05-06 15:09 52.96043 10.74966 2252 ft 109 kts 52°
2026-05-06 15:10 52.96502 10.75957 2250 ft 108 kts 52°
2026-05-06 15:10 52.96960 10.76950 2250 ft 108 kts 52°
2026-05-06 15:10 52.97417 10.77941 2248 ft 108 kts 52°
2026-05-06 15:10 52.97875 10.78937 2249 ft 108 kts 52°
2026-05-06 15:11 52.98332 10.79932 2248 ft 108 kts 52°
2026-05-06 15:11 52.98782 10.80916 2249 ft 109 kts 52°
2026-05-06 15:11 52.99238 10.81912 2250 ft 109 kts 52°
2026-05-06 15:11 52.99696 10.82910 2254 ft 109 kts 52°
2026-05-06 15:12 53.00155 10.83903 2252 ft 108 kts 52°
2026-05-06 15:12 53.00611 10.84892 2247 ft 108 kts 52°
2026-05-06 15:12 53.01066 10.85890 2251 ft 109 kts 52°
2026-05-06 15:12 53.01525 10.86888 2249 ft 108 kts 52°
2026-05-06 15:13 53.01981 10.87884 2248 ft 108 kts 52°
2026-05-06 15:13 53.02432 10.88868 2251 ft 108 kts 52°
2026-05-06 15:13 53.02888 10.89862 2250 ft 108 kts 52°
2026-05-06 15:13 53.03344 10.90861 2249 ft 109 kts 52°
2026-05-06 15:14 53.03799 10.91860 2250 ft 109 kts 52°
2026-05-06 15:14 53.04255 10.92860 2250 ft 109 kts 52°
2026-05-06 15:14 53.04712 10.93859 2250 ft 108 kts 52°
2026-05-06 15:14 53.05167 10.94854 2249 ft 108 kts 52°
2026-05-06 15:15 53.05624 10.95853 2252 ft 108 kts 52°
2026-05-06 15:15 53.06080 10.96848 2250 ft 108 kts 52°
2026-05-06 15:15 53.06534 10.97845 2248 ft 108 kts 52°
2026-05-06 15:15 53.06983 10.98832 2250 ft 108 kts 52°
2026-05-06 15:16 53.07438 10.99833 2250 ft 108 kts 52°
2026-05-06 15:16 53.07893 11.00834 2252 ft 109 kts 52°
2026-05-06 15:16 53.08350 11.01830 2250 ft 108 kts 52°
2026-05-06 15:16 53.08804 11.02826 2248 ft 108 kts 52°
2026-05-06 15:17 53.09259 11.03828 2250 ft 108 kts 52°
2026-05-06 15:17 53.09714 11.04827 2250 ft 108 kts 53°
2026-05-06 15:17 53.10169 11.05827 2250 ft 108 kts 52°
2026-05-06 15:17 53.10623 11.06828 2250 ft 108 kts 52°
2026-05-06 15:18 53.11072 11.07815 2249 ft 108 kts 52°
2026-05-06 15:18 53.11527 11.08815 2249 ft 109 kts 52°
2026-05-06 15:18 53.11981 11.09815 2250 ft 108 kts 52°
2026-05-06 15:18 53.12436 11.10816 2249 ft 108 kts 52°
2026-05-06 15:19 53.12889 11.11817 2250 ft 109 kts 52°
2026-05-06 15:19 53.13343 11.12820 2250 ft 108 kts 52°
2026-05-06 15:19 53.13797 11.13822 2250 ft 108 kts 52°
2026-05-06 15:19 53.14252 11.14823 2253 ft 109 kts 52°
2026-05-06 15:20 53.14700 11.15810 2251 ft 108 kts 52°
2026-05-06 15:20 53.15154 11.16810 2252 ft 108 kts 52°
2026-05-06 15:20 53.15607 11.17809 2249 ft 108 kts 52°
2026-05-06 15:20 53.16061 11.18812 2249 ft 108 kts 52°
2026-05-06 15:21 53.16514 11.19815 2250 ft 108 kts 52°
2026-05-06 15:21 53.16967 11.20819 2249 ft 108 kts 52°
2026-05-06 15:21 53.17267 11.21483 2250 ft 108 kts 52°
2026-05-06 15:21 53.17874 11.22825 2252 ft 108 kts 52°
2026-05-06 15:22 53.18175 11.23489 2248 ft 108 kts 52°
2026-05-06 15:22 53.18627 11.24493 2250 ft 109 kts 52°
2026-05-06 15:22 53.19227 11.25822 2250 ft 108 kts 52°
2026-05-06 15:22 53.19679 11.26825 2249 ft 108 kts 52°
2026-05-06 15:23 53.20132 11.27831 2250 ft 108 kts 52°
2026-05-06 15:23 53.20437 11.28508 2250 ft 108 kts 52°
2026-05-06 15:23 53.20887 11.29502 2253 ft 108 kts 52°
2026-05-06 15:23 53.21338 11.30500 2248 ft 108 kts 52°
2026-05-06 15:24 53.21790 11.31505 2249 ft 108 kts 52°
2026-05-06 15:24 53.22243 11.32513 2251 ft 109 kts 52°
2026-05-06 15:24 53.22696 11.33518 2249 ft 108 kts 52°
2026-05-06 15:24 53.23293 11.34844 2249 ft 108 kts 52°
2026-05-06 15:25 53.23598 11.35524 2249 ft 108 kts 52°
2026-05-06 15:25 53.24051 11.36531 2252 ft 108 kts 52°
2026-05-06 15:25 53.24497 11.37522 2249 ft 108 kts 53°
2026-05-06 15:25 53.24948 11.38527 2249 ft 108 kts 52°
2026-05-06 15:26 53.25400 11.39532 2252 ft 108 kts 52°
2026-05-06 15:26 53.25852 11.40536 2251 ft 108 kts 52°
2026-05-06 15:26 53.26302 11.41542 2249 ft 108 kts 53°
2026-05-06 15:26 53.26753 11.42551 2250 ft 108 kts 52°
2026-05-06 15:27 53.27204 11.43558 2253 ft 108 kts 52°
2026-05-06 15:27 53.27655 11.44558 2248 ft 108 kts 53°
2026-05-06 15:27 53.28105 11.45565 2249 ft 108 kts 53°
2026-05-06 15:27 53.28549 11.46561 2250 ft 108 kts 52°
2026-05-06 15:28 53.29002 11.47569 2252 ft 108 kts 52°
2026-05-06 15:28 53.29453 11.48572 2248 ft 108 kts 53°
2026-05-06 15:28 53.29902 11.49579 2250 ft 108 kts 52°
2026-05-06 15:28 53.30353 11.50589 2249 ft 108 kts 53°
2026-05-06 15:29 53.30802 11.51599 2250 ft 108 kts 52°
2026-05-06 15:29 53.31252 11.52609 2250 ft 108 kts 52°
2026-05-06 15:29 53.31704 11.53619 2252 ft 108 kts 52°
2026-05-06 15:29 53.32155 11.54625 2249 ft 108 kts 52°
2026-05-06 15:30 53.32599 11.55622 2249 ft 108 kts 53°
2026-05-06 15:30 53.33048 11.56632 2250 ft 108 kts 53°
2026-05-06 15:30 53.33498 11.57643 2250 ft 108 kts 53°
2026-05-06 15:30 53.33948 11.58654 2250 ft 108 kts 53°
2026-05-06 15:31 53.34398 11.59665 2250 ft 108 kts 52°
2026-05-06 15:31 53.34848 11.60676 2223 ft 108 kts 52°
2026-05-06 15:31 53.35306 11.61671 2129 ft 107 kts 51°
2026-05-06 15:32 53.36246 11.63589 1911 ft 107 kts 49°
2026-05-06 15:32 53.36735 11.64525 1807 ft 107 kts 47°
2026-05-06 15:32 53.37236 11.65446 1720 ft 107 kts 46°
2026-05-06 15:32 53.37712 11.66280 1771 ft 95 kts 47°
2026-05-06 15:33 53.38180 11.67063 1621 ft 95 kts 46°
2026-05-06 15:33 53.38656 11.67822 1477 ft 95 kts 45°
2026-05-06 15:33 53.39125 11.68528 1334 ft 82 kts 43°
2026-05-06 15:33 53.39522 11.69049 1210 ft 65 kts 40°
2026-05-06 15:34 53.39892 11.69488 1177 ft 68 kts 40°
2026-05-06 15:34 53.40245 11.70035 1164 ft 70 kts 50°
2026-05-06 15:34 53.40494 11.70725 1056 ft 70 kts 62°
2026-05-06 15:34 53.40702 11.71467 940 ft 71 kts 63°
2026-05-06 15:35 53.40882 11.72229 800 ft 70 kts 64°
2026-05-06 15:35 53.41109 11.72968 682 ft 72 kts 57°
2026-05-06 15:35 53.41354 11.73706 548 ft 71 kts 62°
2026-05-06 15:35 53.41577 11.74372 484 ft 59 kts 60°
2026-05-06 15:36 53.41745 11.74934 405 ft 53 kts 66°
2026-05-06 15:36 53.41875 11.75510 332 ft 52 kts 65°
2026-05-06 15:36 53.42048 11.76051 252 ft 56 kts 60°
2026-05-06 15:36 53.42217 11.76619 201 ft 53 kts 63°
2026-05-06 15:37 53.42381 11.77186 198 ft 56 kts 65°
2026-05-06 15:37 53.42536 11.77764 188 ft 49 kts 65°
2026-05-06 15:37 53.42684 11.78192 217 ft 37 kts 34°
2026-05-06 15:37 53.42912 11.78325 212 ft 36 kts 29°
2026-05-06 15:38 53.43060 11.78513 201 ft 5 kts 20°
2026-05-06 15:38 53.43088 11.78502 194 ft 5 kts
2026-05-06 15:38 53.43107 11.78511 163 ft 3 kts 68°
2026-05-06 15:38 53.43110 11.78504 155 ft 0 kts 67°